Terminal Aerodrome Forecast
Issued by NWS Charleston, WV

Home | Current Version | Previous Version | Text Only | Print | Product List | Glossary On
Versions: 1 2 3 4 5 6 7 8 9 10 11 12 13 14 15 16 17 18 19 20 21 22 23 24 25
000
FTUS41 KRLX 270208 AAA
TAFHTS
TAF AMD
KHTS 270208Z 2702/2724 18006KT 4SM BR VCTS BKN030CB BKN080
      TEMPO 2702/2703 25015G30KT 1SM +TSRA BR SCT001 BKN020CB
     FM270300 21005KT 3SM -SHRA BR SCT025 BKN070
      TEMPO 2703/2705 1SM BR SCT001
     FM270500 20004KT 4SM BR SCT001 BKN020
     FM271300 21005KT P6SM BKN020
     FM271600 22007KT P6SM BKN030=

USA.gov is the U.S. government's official web portal to all federal, state and local government web resources and services.